sensor_id;sensor_type;location;lat;lon;timestamp;pressure;altitude;pressure_sealevel;temperature;humidity
74270;BME280;62754;48.252;11.654;2023-05-16T00:01:39;95738.78;;;10.47;87.50
74270;BME280;62754;48.252;11.654;2023-05-16T00:04:05;95743.97;;;10.57;87.84
74270;BME280;62754;48.252;11.654;2023-05-16T00:06:31;95742.22;;;10.57;86.96
74270;BME280;62754;48.252;11.654;2023-05-16T00:09:01;95738.81;;;10.57;87.47
74270;BME280;62754;48.252;11.654;2023-05-16T00:11:29;95743.81;;;10.58;87.17
74270;BME280;62754;48.252;11.654;2023-05-16T00:13:57;95741.25;;;10.58;87.51
74270;BME280;62754;48.252;11.654;2023-05-16T00:16:25;95739.47;;;10.49;87.74
74270;BME280;62754;48.252;11.654;2023-05-16T00:18:54;95738.50;;;10.40;87.26
74270;BME280;62754;48.252;11.654;2023-05-16T00:21:20;95741.19;;;10.39;87.90
74270;BME280;62754;48.252;11.654;2023-05-16T00:23:50;95741.25;;;10.48;88.12
74270;BME280;62754;48.252;11.654;2023-05-16T00:26:16;95733.78;;;10.45;88.00
74270;BME280;62754;48.252;11.654;2023-05-16T00:28:44;95736.09;;;10.48;87.42
74270;BME280;62754;48.252;11.654;2023-05-16T00:31:13;95731.06;;;10.47;87.31
74270;BME280;62754;48.252;11.654;2023-05-16T00:33:39;95730.22;;;10.46;87.33
74270;BME280;62754;48.252;11.654;2023-05-16T00:36:04;95736.91;;;10.49;87.11
74270;BME280;62754;48.252;11.654;2023-05-16T00:38:30;95726.56;;;10.39;87.46
74270;BME280;62754;48.252;11.654;2023-05-16T00:41:01;95733.06;;;10.43;87.42
74270;BME280;62754;48.252;11.654;2023-05-16T00:43:27;95729.56;;;10.44;87.67
74270;BME280;62754;48.252;11.654;2023-05-16T00:45:53;95727.94;;;10.43;87.69
74270;BME280;62754;48.252;11.654;2023-05-16T00:48:19;95733.22;;;10.42;87.47
74270;BME280;62754;48.252;11.654;2023-05-16T00:50:44;95737.28;;;10.44;87.19
74270;BME280;62754;48.252;11.654;2023-05-16T00:53:12;95732.53;;;10.40;87.27
74270;BME280;62754;48.252;11.654;2023-05-16T00:55:40;95732.06;;;10.25;87.62
74270;BME280;62754;48.252;11.654;2023-05-16T00:58:09;95734.69;;;10.35;88.30
74270;BME280;62754;48.252;11.654;2023-05-16T01:00:35;95734.13;;;10.31;88.20
74270;BME280;62754;48.252;11.654;2023-05-16T01:03:02;95741.44;;;10.36;87.40
74270;BME280;62754;48.252;11.654;2023-05-16T01:05:29;95738.31;;;10.32;87.95
74270;BME280;62754;48.252;11.654;2023-05-16T01:07:57;95739.84;;;10.35;88.51
74270;BME280;62754;48.252;11.654;2023-05-16T01:10:31;95729.09;;;10.30;87.86
74270;BME280;62754;48.252;11.654;2023-05-16T01:15:53;95729.50;;;10.25;88.14
74270;BME280;62754;48.252;11.654;2023-05-16T01:20:55;95725.72;;;10.29;88.07
74270;BME280;62754;48.252;11.654;2023-05-16T01:26:28;95720.31;;;10.32;88.53
74270;BME280;62754;48.252;11.654;2023-05-16T01:28:58;95719.25;;;10.35;87.96
74270;BME280;62754;48.252;11.654;2023-05-16T01:31:24;95718.94;;;10.28;88.47
74270;BME280;62754;48.252;11.654;2023-05-16T01:33:50;95713.78;;;10.28;88.40
74270;BME280;62754;48.252;11.654;2023-05-16T01:36:43;95707.91;;;10.17;88.95
74270;BME280;62754;48.252;11.654;2023-05-16T01:39:21;95710.38;;;10.18;89.07
74270;BME280;62754;48.252;11.654;2023-05-16T01:42:02;95701.19;;;10.04;89.34
74270;BME280;62754;48.252;11.654;2023-05-16T01:46:58;95701.75;;;10.08;89.32
74270;BME280;62754;48.252;11.654;2023-05-16T01:49:31;95710.44;;;10.07;89.03
74270;BME280;62754;48.252;11.654;2023-05-16T01:52:06;95712.56;;;10.02;89.02
74270;BME280;62754;48.252;11.654;2023-05-16T01:54:40;95711.09;;;10.09;88.85
74270;BME280;62754;48.252;11.654;2023-05-16T01:57:07;95703.19;;;10.01;89.80
74270;BME280;62754;48.252;11.654;2023-05-16T01:59:38;95691.13;;;9.92;89.75
74270;BME280;62754;48.252;11.654;2023-05-16T02:02:09;95706.97;;;9.97;89.96
74270;BME280;62754;48.252;11.654;2023-05-16T02:04:35;95704.16;;;10.00;89.51
74270;BME280;62754;48.252;11.654;2023-05-16T02:07:01;95697.38;;;9.99;89.54
74270;BME280;62754;48.252;11.654;2023-05-16T02:09:29;95701.16;;;9.95;90.14
74270;BME280;62754;48.252;11.654;2023-05-16T02:11:54;95704.94;;;9.91;89.84
74270;BME280;62754;48.252;11.654;2023-05-16T02:14:20;95704.47;;;9.86;90.29
74270;BME280;62754;48.252;11.654;2023-05-16T02:16:47;95708.13;;;9.83;90.68
74270;BME280;62754;48.252;11.654;2023-05-16T02:19:12;95714.09;;;9.84;90.17
74270;BME280;62754;48.252;11.654;2023-05-16T02:21:38;95706.94;;;9.87;90.38
74270;BME280;62754;48.252;11.654;2023-05-16T02:24:08;95708.16;;;9.93;90.14
74270;BME280;62754;48.252;11.654;2023-05-16T02:26:34;95712.66;;;9.91;89.95
74270;BME280;62754;48.252;11.654;2023-05-16T02:29:02;95708.44;;;9.90;89.86
74270;BME280;62754;48.252;11.654;2023-05-16T02:31:30;95713.59;;;9.90;90.05
74270;BME280;62754;48.252;11.654;2023-05-16T02:33:57;95713.84;;;9.87;89.68
74270;BME280;62754;48.252;11.654;2023-05-16T02:36:25;95715.03;;;9.83;90.03
74270;BME280;62754;48.252;11.654;2023-05-16T02:38:53;95716.78;;;9.82;90.71
74270;BME280;62754;48.252;11.654;2023-05-16T02:41:21;95715.59;;;9.86;89.84
74270;BME280;62754;48.252;11.654;2023-05-16T02:43:54;95718.06;;;9.88;89.69
74270;BME280;62754;48.252;11.654;2023-05-16T02:46:21;95719.66;;;9.89;89.77
74270;BME280;62754;48.252;11.654;2023-05-16T02:48:47;95719.81;;;9.87;90.02
74270;BME280;62754;48.252;11.654;2023-05-16T02:51:13;95723.31;;;9.86;89.90
74270;BME280;62754;48.252;11.654;2023-05-16T02:53:46;95723.28;;;9.77;90.42
74270;BME280;62754;48.252;11.654;2023-05-16T02:56:14;95719.00;;;9.87;90.74
74270;BME280;62754;48.252;11.654;2023-05-16T02:58:40;95720.31;;;9.81;90.76
74270;BME280;62754;48.252;11.654;2023-05-16T03:01:10;95721.34;;;9.69;90.95
74270;BME280;62754;48.252;11.654;2023-05-16T03:03:38;95729.22;;;9.77;90.98
74270;BME280;62754;48.252;11.654;2023-05-16T03:06:08;95720.94;;;9.74;90.95
74270;BME280;62754;48.252;11.654;2023-05-16T03:08:36;95718.13;;;9.77;91.12
74270;BME280;62754;48.252;11.654;2023-05-16T03:11:02;95710.66;;;9.74;91.00
74270;BME280;62754;48.252;11.654;2023-05-16T03:13:30;95713.47;;;9.71;91.77
74270;BME280;62754;48.252;11.654;2023-05-16T03:15:56;95717.97;;;9.78;90.70
74270;BME280;62754;48.252;11.654;2023-05-16T03:18:22;95712.16;;;9.76;91.17
74270;BME280;62754;48.252;11.654;2023-05-16T03:20:47;95714.59;;;9.78;90.99
74270;BME280;62754;48.252;11.654;2023-05-16T03:23:13;95713.53;;;9.80;90.56
74270;BME280;62754;48.252;11.654;2023-05-16T03:25:39;95713.00;;;9.77;90.71
74270;BME280;62754;48.252;11.654;2023-05-16T03:28:06;95715.31;;;9.80;90.28
74270;BME280;62754;48.252;11.654;2023-05-16T03:30:32;95720.56;;;9.78;90.53
74270;BME280;62754;48.252;11.654;2023-05-16T03:33:00;95713.66;;;9.79;91.14
74270;BME280;62754;48.252;11.654;2023-05-16T03:35:29;95712.03;;;9.78;89.78
74270;BME280;62754;48.252;11.654;2023-05-16T03:37:55;95716.13;;;9.80;90.42
74270;BME280;62754;48.252;11.654;2023-05-16T03:40:22;95713.66;;;9.79;90.37
74270;BME280;62754;48.252;11.654;2023-05-16T03:42:50;95708.63;;;9.77;90.39
74270;BME280;62754;48.252;11.654;2023-05-16T03:45:18;95713.09;;;9.75;90.05
74270;BME280;62754;48.252;11.654;2023-05-16T03:47:44;95704.06;;;9.81;89.81
74270;BME280;62754;48.252;11.654;2023-05-16T03:50:10;95715.31;;;9.80;89.94
74270;BME280;62754;48.252;11.654;2023-05-16T03:52:36;95716.94;;;9.81;90.08
74270;BME280;62754;48.252;11.654;2023-05-16T03:55:05;95707.25;;;9.73;90.28
74270;BME280;62754;48.252;11.654;2023-05-16T03:57:33;95705.94;;;9.79;90.54
74270;BME280;62754;48.252;11.654;2023-05-16T03:59:59;95706.75;;;9.79;90.34
74270;BME280;62754;48.252;11.654;2023-05-16T04:02:37;95707.25;;;9.73;90.36
74270;BME280;62754;48.252;11.654;2023-05-16T04:05:06;95701.19;;;9.74;90.44
74270;BME280;62754;48.252;11.654;2023-05-16T04:07:32;95707.25;;;9.73;90.79
74270;BME280;62754;48.252;11.654;2023-05-16T04:09:58;95706.06;;;9.77;90.33
74270;BME280;62754;48.252;11.654;2023-05-16T04:12:28;95708.63;;;9.77;90.58
74270;BME280;62754;48.252;11.654;2023-05-16T04:14:56;95707.44;;;9.81;90.36
74270;BME280;62754;48.252;11.654;2023-05-16T04:17:22;95710.81;;;9.82;89.80
74270;BME280;62754;48.252;11.654;2023-05-16T04:19:53;95713.53;;;9.80;89.30
74270;BME280;62754;48.252;11.654;2023-05-16T04:22:24;95717.72;;;9.81;89.17
74270;BME280;62754;48.252;11.654;2023-05-16T04:24:50;95713.03;;;9.86;89.90
74270;BME280;62754;48.252;11.654;2023-05-16T04:27:20;95713.84;;;9.87;89.76
74270;BME280;62754;48.252;11.654;2023-05-16T04:29:46;95718.44;;;9.83;89.37
74270;BME280;62754;48.252;11.654;2023-05-16T04:32:17;95716.59;;;9.95;88.71
74270;BME280;62754;48.252;11.654;2023-05-16T04:34:45;95724.97;;;9.87;89.16
74270;BME280;62754;48.252;11.654;2023-05-16T04:37:13;95722.50;;;9.86;89.18
74270;BME280;62754;48.252;11.654;2023-05-16T04:39:41;95714.97;;;9.94;89.55
74270;BME280;62754;48.252;11.654;2023-05-16T04:42:09;95718.38;;;10.04;89.36
74270;BME280;62754;48.252;11.654;2023-05-16T04:44:37;95719.84;;;9.97;89.06
74270;BME280;62754;48.252;11.654;2023-05-16T04:47:03;95708.72;;;9.96;88.89
74270;BME280;62754;48.252;11.654;2023-05-16T04:49:29;95723.28;;;10.07;88.34
74270;BME280;62754;48.252;11.654;2023-05-16T04:51:56;95717.81;;;10.00;88.80
74270;BME280;62754;48.252;11.654;2023-05-16T04:54:22;95713.88;;;9.96;89.44
74270;BME280;62754;48.252;11.654;2023-05-16T04:56:48;95726.25;;;10.02;88.98
74270;BME280;62754;48.252;11.654;2023-05-16T04:59:14;95724.31;;;9.95;88.87
74270;BME280;62754;48.252;11.654;2023-05-16T05:01:42;95723.22;;;9.97;89.14
74270;BME280;62754;48.252;11.654;2023-05-16T05:04:10;95726.53;;;10.09;88.66
74270;BME280;62754;48.252;11.654;2023-05-16T05:06:35;95725.72;;;10.09;88.41
74270;BME280;62754;48.252;11.654;2023-05-16T05:09:06;95724.22;;;10.06;88.68
74270;BME280;62754;48.252;11.654;2023-05-16T05:11:31;95732.22;;;10.03;88.62
74270;BME280;62754;48.252;11.654;2023-05-16T05:13:57;95724.34;;;10.04;87.92
74270;BME280;62754;48.252;11.654;2023-05-16T05:16:27;95725.09;;;10.16;88.33
74270;BME280;62754;48.252;11.654;2023-05-16T05:18:56;95721.00;;;10.14;87.93
74270;BME280;62754;48.252;11.654;2023-05-16T05:21:24;95719.63;;;10.10;88.31
74270;BME280;62754;48.252;11.654;2023-05-16T05:23:50;95726.28;;;10.12;88.28
74270;BME280;62754;48.252;11.654;2023-05-16T05:26:18;95727.25;;;10.11;88.23
74270;BME280;62754;48.252;11.654;2023-05-16T05:28:47;95727.44;;;10.19;87.56
74270;BME280;62754;48.252;11.654;2023-05-16T05:31:15;95726.47;;;10.20;87.47
74270;BME280;62754;48.252;11.654;2023-05-16T05:33:43;95721.94;;;10.33;88.21
74270;BME280;62754;48.252;11.654;2023-05-16T05:36:11;95722.78;;;10.43;87.06
74270;BME280;62754;48.252;11.654;2023-05-16T05:38:36;95712.97;;;10.28;87.65
74270;BME280;62754;48.252;11.654;2023-05-16T05:41:07;95713.44;;;10.52;86.53
74270;BME280;62754;48.252;11.654;2023-05-16T05:43:35;95715.38;;;10.60;86.48
74270;BME280;62754;48.252;11.654;2023-05-16T05:46:10;95716.63;;;10.75;85.89
74270;BME280;62754;48.252;11.654;2023-05-16T05:48:36;95721.41;;;10.98;85.48
74270;BME280;62754;48.252;11.654;2023-05-16T05:51:02;95718.56;;;10.92;85.07
74270;BME280;62754;48.252;11.654;2023-05-16T05:53:28;95710.94;;;10.90;84.94
74270;BME280;62754;48.252;11.654;2023-05-16T05:55:53;95713.94;;;11.05;83.49
74270;BME280;62754;48.252;11.654;2023-05-16T05:58:20;95718.44;;;11.32;83.65
74270;BME280;62754;48.252;11.654;2023-05-16T06:00:48;95700.91;;;11.16;82.76
74270;BME280;62754;48.252;11.654;2023-05-16T06:03:17;95713.91;;;11.63;82.55
74270;BME280;62754;48.252;11.654;2023-05-16T06:05:42;95708.50;;;11.66;81.00
74270;BME280;62754;48.252;11.654;2023-05-16T06:08:08;95709.84;;;11.70;81.53
74270;BME280;62754;48.252;11.654;2023-05-16T06:10:36;95719.63;;;11.85;81.03
74270;BME280;62754;48.252;11.654;2023-05-16T06:13:04;95713.09;;;11.91;81.61
74270;BME280;62754;48.252;11.654;2023-05-16T06:15:32;95716.91;;;11.87;80.88
74270;BME280;62754;48.252;11.654;2023-05-16T06:18:00;95699.94;;;11.75;81.01
74270;BME280;62754;48.252;11.654;2023-05-16T06:20:26;95717.59;;;11.70;81.16
74270;BME280;62754;48.252;11.654;2023-05-16T06:22:56;95724.38;;;11.61;81.05
74270;BME280;62754;48.252;11.654;2023-05-16T06:25:22;95715.69;;;11.53;81.58
74270;BME280;62754;48.252;11.654;2023-05-16T06:27:48;95716.94;;;11.39;81.84
74270;BME280;62754;48.252;11.654;2023-05-16T06:30:16;95717.72;;;11.59;81.28
74270;BME280;62754;48.252;11.654;2023-05-16T06:32:42;95728.84;;;11.59;80.99
74270;BME280;62754;48.252;11.654;2023-05-16T06:35:08;95712.97;;;11.64;83.05
74270;BME280;62754;48.252;11.654;2023-05-16T06:37:33;95718.41;;;11.61;82.65
74270;BME280;62754;48.252;11.654;2023-05-16T06:40:01;95719.09;;;11.43;82.01
74270;BME280;62754;48.252;11.654;2023-05-16T06:42:32;95717.03;;;11.66;81.40
74270;BME280;62754;48.252;11.654;2023-05-16T06:44:59;95711.84;;;11.95;81.10
74270;BME280;62754;48.252;11.654;2023-05-16T06:47:25;95711.44;;;12.00;80.21
74270;BME280;62754;48.252;11.654;2023-05-16T06:49:51;95723.81;;;11.86;79.83
74270;BME280;62754;48.252;11.654;2023-05-16T06:52:17;95721.28;;;11.77;80.02
74270;BME280;62754;48.252;11.654;2023-05-16T06:54:45;95727.22;;;11.68;81.53
74270;BME280;62754;48.252;11.654;2023-05-16T06:57:15;95725.34;;;11.70;81.95
74270;BME280;62754;48.252;11.654;2023-05-16T06:59:44;95735.09;;;11.66;82.04
74270;BME280;62754;48.252;11.654;2023-05-16T07:02:09;95734.72;;;11.52;82.16
74270;BME280;62754;48.252;11.654;2023-05-16T07:04:35;95727.13;;;11.50;82.82
74270;BME280;62754;48.252;11.654;2023-05-16T07:07:03;95723.84;;;11.48;82.46
74270;BME280;62754;48.252;11.654;2023-05-16T07:09:29;95724.00;;;11.46;82.95
74270;BME280;62754;48.252;11.654;2023-05-16T07:11:55;95723.97;;;11.56;82.63
74270;BME280;62754;48.252;11.654;2023-05-16T07:14:25;95717.22;;;11.45;84.13
74270;BME280;62754;48.252;11.654;2023-05-16T07:16:51;95704.03;;;11.29;84.03
74270;BME280;62754;48.252;11.654;2023-05-16T07:19:21;95719.38;;;11.21;84.28
74270;BME280;62754;48.252;11.654;2023-05-16T07:21:49;95721.28;;;11.19;86.05
74270;BME280;62754;48.252;11.654;2023-05-16T07:24:20;95707.97;;;11.05;86.01
74270;BME280;62754;48.252;11.654;2023-05-16T07:26:48;95724.81;;;11.18;85.71
74270;BME280;62754;48.252;11.654;2023-05-16T07:29:16;95712.06;;;11.07;85.92
74270;BME280;62754;48.252;11.654;2023-05-16T07:31:42;95722.75;;;11.12;86.53
74270;BME280;62754;48.252;11.654;2023-05-16T07:34:10;95729.28;;;11.16;86.77
74270;BME280;62754;48.252;11.654;2023-05-16T07:36:38;95733.88;;;11.13;87.67
74270;BME280;62754;48.252;11.654;2023-05-16T07:39:04;95727.91;;;10.93;88.40
74270;BME280;62754;48.252;11.654;2023-05-16T07:41:32;95737.53;;;11.00;88.58
74270;BME280;62754;48.252;11.654;2023-05-16T07:44:00;95737.41;;;11.02;88.68
74270;BME280;62754;48.252;11.654;2023-05-16T07:46:29;95745.81;;;10.94;88.21
74270;BME280;62754;48.252;11.654;2023-05-16T07:48:57;95749.72;;;10.89;88.56
74270;BME280;62754;48.252;11.654;2023-05-16T07:51:24;95748.63;;;10.82;89.28
74270;BME280;62754;48.252;11.654;2023-05-16T07:53:56;95747.97;;;10.89;89.25
74270;BME280;62754;48.252;11.654;2023-05-16T07:56:21;95751.09;;;10.93;90.32
74270;BME280;62754;48.252;11.654;2023-05-16T07:58:50;95753.97;;;10.99;89.77
74270;BME280;62754;48.252;11.654;2023-05-16T08:01:16;95758.72;;;10.94;89.72
74270;BME280;62754;48.252;11.654;2023-05-16T08:03:42;95758.16;;;10.91;90.01
74270;BME280;62754;48.252;11.654;2023-05-16T08:06:10;95763.59;;;10.97;90.82
74270;BME280;62754;48.252;11.654;2023-05-16T08:08:36;95769.44;;;11.09;90.61
74270;BME280;62754;48.252;11.654;2023-05-16T08:11:04;95760.22;;;11.07;90.07
74270;BME280;62754;48.252;11.654;2023-05-16T08:13:29;95764.16;;;11.11;90.79
74270;BME280;62754;48.252;11.654;2023-05-16T08:15:55;95758.03;;;11.02;89.92
74270;BME280;62754;48.252;11.654;2023-05-16T08:18:25;95763.47;;;11.09;89.38
74270;BME280;62754;48.252;11.654;2023-05-16T08:20:51;95767.13;;;11.06;90.32
74270;BME280;62754;48.252;11.654;2023-05-16T08:23:17;95754.66;;;10.92;89.87
74270;BME280;62754;48.252;11.654;2023-05-16T08:25:43;95767.13;;;11.06;89.32
74270;BME280;62754;48.252;11.654;2023-05-16T08:28:12;95755.75;;;10.99;89.01
74270;BME280;62754;48.252;11.654;2023-05-16T08:30:37;95760.09;;;11.08;89.75
74270;BME280;62754;48.252;11.654;2023-05-16T08:33:04;95745.84;;;11.04;89.02
74270;BME280;62754;48.252;11.654;2023-05-16T08:35:30;95762.00;;;11.16;89.48
74270;BME280;62754;48.252;11.654;2023-05-16T08:37:56;95764.44;;;11.17;88.80
74270;BME280;62754;48.252;11.654;2023-05-16T08:40:27;95772.31;;;11.25;88.84
74270;BME280;62754;48.252;11.654;2023-05-16T08:42:55;95765.53;;;11.15;90.60
74270;BME280;62754;48.252;11.654;2023-05-16T08:45:22;95769.88;;;11.24;90.00
74270;BME280;62754;48.252;11.654;2023-05-16T08:47:49;95768.38;;;11.40;89.12
74270;BME280;62754;48.252;11.654;2023-05-16T08:50:15;95768.81;;;11.45;89.51
74270;BME280;62754;48.252;11.654;2023-05-16T08:52:43;95764.31;;;11.47;88.71
74270;BME280;62754;48.252;11.654;2023-05-16T08:55:17;95757.13;;;11.41;88.93
74270;BME280;62754;48.252;11.654;2023-05-16T08:57:47;95762.41;;;11.59;89.71
74270;BME280;62754;48.252;11.654;2023-05-16T09:00:16;95762.41;;;11.78;88.15
74270;BME280;62754;48.252;11.654;2023-05-16T09:02:42;95761.72;;;11.86;88.15
74270;BME280;62754;48.252;11.654;2023-05-16T09:05:10;95766.31;;;12.02;87.16
74270;BME280;62754;48.252;11.654;2023-05-16T09:07:39;95768.38;;;11.98;88.50
74270;BME280;62754;48.252;11.654;2023-05-16T09:10:08;95767.94;;;12.03;87.04
74270;BME280;62754;48.252;11.654;2023-05-16T09:12:34;95760.56;;;12.27;84.99
74270;BME280;62754;48.252;11.654;2023-05-16T09:15:04;95758.91;;;12.35;86.36
74270;BME280;62754;48.252;11.654;2023-05-16T09:17:38;95760.91;;;12.69;83.00
74270;BME280;62754;48.252;11.654;2023-05-16T09:20:15;95755.53;;;12.62;84.28
74270;BME280;62754;48.252;11.654;2023-05-16T09:25:19;95751.94;;;12.90;83.03
74270;BME280;62754;48.252;11.654;2023-05-16T09:27:46;95743.97;;;13.02;82.96
74270;BME280;62754;48.252;11.654;2023-05-16T09:30:14;95742.50;;;13.26;80.88
74270;BME280;62754;48.252;11.654;2023-05-16T09:32:43;95733.09;;;13.43;82.10
74270;BME280;62754;48.252;11.654;2023-05-16T09:35:22;95739.72;;;13.81;81.73
74270;BME280;62754;48.252;11.654;2023-05-16T09:37:49;95741.94;;;13.76;80.68
74270;BME280;62754;48.252;11.654;2023-05-16T09:40:15;95749.88;;;13.57;80.15
74270;BME280;62754;48.252;11.654;2023-05-16T09:42:44;95735.91;;;13.50;79.51
74270;BME280;62754;48.252;11.654;2023-05-16T09:45:12;95747.28;;;13.21;80.96
74270;BME280;62754;48.252;11.654;2023-05-16T09:47:37;95751.59;;;13.13;83.06
74270;BME280;62754;48.252;11.654;2023-05-16T09:50:04;95754.84;;;13.05;83.53
74270;BME280;62754;48.252;11.654;2023-05-16T09:52:29;95753.34;;;12.85;82.44
74270;BME280;62754;48.252;11.654;2023-05-16T09:54:55;95744.72;;;12.67;83.92
74270;BME280;62754;48.252;11.654;2023-05-16T09:57:23;95745.78;;;12.47;84.08
74270;BME280;62754;48.252;11.654;2023-05-16T09:59:51;95748.13;;;12.40;85.76
74270;BME280;62754;48.252;11.654;2023-05-16T10:02:17;95750.22;;;12.27;85.67
74270;BME280;62754;48.252;11.654;2023-05-16T10:04:48;95754.25;;;12.39;86.41
74270;BME280;62754;48.252;11.654;2023-05-16T10:07:17;95748.88;;;12.23;85.78
74270;BME280;62754;48.252;11.654;2023-05-16T10:09:46;95757.69;;;12.20;86.54
74270;BME280;62754;48.252;11.654;2023-05-16T10:12:16;95758.44;;;12.03;88.12
74270;BME280;62754;48.252;11.654;2023-05-16T10:14:45;95765.25;;;11.94;88.73
74270;BME280;62754;48.252;11.654;2023-05-16T10:17:13;95775.16;;;11.70;90.07
74270;BME280;62754;48.252;11.654;2023-05-16T10:19:43;95768.81;;;11.74;90.38
74270;BME280;62754;48.252;11.654;2023-05-16T10:22:10;95777.88;;;11.59;91.47
74270;BME280;62754;48.252;11.654;2023-05-16T10:27:09;95767.28;;;11.43;94.25
74270;BME280;62754;48.252;11.654;2023-05-16T10:29:43;95766.88;;;11.47;93.87
74270;BME280;62754;48.252;11.654;2023-05-16T10:32:12;95764.88;;;11.41;95.01
74270;BME280;62754;48.252;11.654;2023-05-16T10:34:38;95770.00;;;11.51;94.40
74270;BME280;62754;48.252;11.654;2023-05-16T10:37:05;95765.94;;;11.48;94.28
74270;BME280;62754;48.252;11.654;2023-05-16T10:39:31;95771.50;;;11.44;94.34
74270;BME280;62754;48.252;11.654;2023-05-16T10:42:00;95779.66;;;11.49;95.10
74270;BME280;62754;48.252;11.654;2023-05-16T10:44:28;95778.19;;;11.46;94.87
74270;BME280;62754;48.252;11.654;2023-05-16T10:46:57;95778.72;;;11.50;95.44
74270;BME280;62754;48.252;11.654;2023-05-16T10:49:26;95779.81;;;11.57;94.82
74270;BME280;62754;48.252;11.654;2023-05-16T10:52:07;95781.00;;;11.63;93.15
74270;BME280;62754;48.252;11.654;2023-05-16T10:54:40;95778.34;;;11.74;94.61
74270;BME280;62754;48.252;11.654;2023-05-16T10:57:11;95786.59;;;11.87;94.02
74270;BME280;62754;48.252;11.654;2023-05-16T10:59:42;95780.03;;;12.02;93.29
74270;BME280;62754;48.252;11.654;2023-05-16T11:04:57;95772.25;;;12.21;91.99
74270;BME280;62754;48.252;11.654;2023-05-16T11:07:34;95772.72;;;12.44;92.60
74270;BME280;62754;48.252;11.654;2023-05-16T11:10:05;95777.09;;;12.34;90.56
74270;BME280;62754;48.252;11.654;2023-05-16T11:12:42;95770.53;;;12.49;91.86
74270;BME280;62754;48.252;11.654;2023-05-16T11:17:53;95765.59;;;12.83;89.50
74270;BME280;62754;48.252;11.654;2023-05-16T11:20:38;95750.50;;;13.06;87.66
74270;BME280;62754;48.252;11.654;2023-05-16T11:23:35;95758.97;;;13.25;88.59
74270;BME280;62754;48.252;11.654;2023-05-16T11:26:05;95756.97;;;13.37;87.32
74270;BME280;62754;48.252;11.654;2023-05-16T11:28:31;95757.97;;;13.36;87.27
74270;BME280;62754;48.252;11.654;2023-05-16T11:31:02;95751.97;;;13.35;87.43
74270;BME280;62754;48.252;11.654;2023-05-16T11:33:29;95744.63;;;13.49;87.68
74270;BME280;62754;48.252;11.654;2023-05-16T11:36:06;95755.81;;;13.93;83.95
74270;BME280;62754;48.252;11.654;2023-05-16T11:38:33;95749.75;;;13.84;83.49
74270;BME280;62754;48.252;11.654;2023-05-16T11:41:06;95743.63;;;13.85;84.27
74270;BME280;62754;48.252;11.654;2023-05-16T11:43:43;95746.63;;;13.98;85.65
74270;BME280;62754;48.252;11.654;2023-05-16T11:46:16;95745.84;;;14.06;85.25
74270;BME280;62754;48.252;11.654;2023-05-16T11:48:44;95748.56;;;13.96;85.55
74270;BME280;62754;48.252;11.654;2023-05-16T11:51:09;95756.31;;;13.53;85.57
74270;BME280;62754;48.252;11.654;2023-05-16T11:53:38;95754.91;;;13.58;84.95
74270;BME280;62754;48.252;11.654;2023-05-16T11:56:07;95751.13;;;13.53;86.38
74270;BME280;62754;48.252;11.654;2023-05-16T11:58:32;95753.94;;;13.42;85.29
74270;BME280;62754;48.252;11.654;2023-05-16T12:00:58;95759.50;;;13.47;85.57
74270;BME280;62754;48.252;11.654;2023-05-16T12:03:24;95756.09;;;13.46;87.44
74270;BME280;62754;48.252;11.654;2023-05-16T12:05:55;95756.41;;;13.43;87.51
74270;BME280;62754;48.252;11.654;2023-05-16T12:08:21;95745.75;;;13.46;88.17
74270;BME280;62754;48.252;11.654;2023-05-16T12:10:48;95748.56;;;13.35;89.47
74270;BME280;62754;48.252;11.654;2023-05-16T12:13:19;95746.19;;;13.42;88.60
74270;BME280;62754;48.252;11.654;2023-05-16T12:15:49;95758.09;;;13.52;90.15
74270;BME280;62754;48.252;11.654;2023-05-16T12:18:15;95751.06;;;13.45;90.46
74270;BME280;62754;48.252;11.654;2023-05-16T12:20:44;95739.09;;;13.26;90.22
74270;BME280;62754;48.252;11.654;2023-05-16T12:23:11;95756.22;;;13.45;91.66
74270;BME280;62754;48.252;11.654;2023-05-16T12:25:44;95755.94;;;13.30;91.72
74270;BME280;62754;48.252;11.654;2023-05-16T12:28:11;95755.22;;;13.20;90.61
74270;BME280;62754;48.252;11.654;2023-05-16T12:30:46;95749.94;;;13.12;92.57
74270;BME280;62754;48.252;11.654;2023-05-16T12:33:16;95750.34;;;13.34;91.72
74270;BME280;62754;48.252;11.654;2023-05-16T12:35:43;95755.34;;;13.54;92.41
74270;BME280;62754;48.252;11.654;2023-05-16T12:38:15;95746.16;;;13.77;89.15
74270;BME280;62754;48.252;11.654;2023-05-16T12:40:41;95745.28;;;13.94;90.85
74270;BME280;62754;48.252;11.654;2023-05-16T12:43:20;95748.09;;;14.01;89.28
74270;BME280;62754;48.252;11.654;2023-05-16T12:45:50;95740.53;;;14.07;90.73
74270;BME280;62754;48.252;11.654;2023-05-16T12:48:19;95729.22;;;14.08;89.80
74270;BME280;62754;48.252;11.654;2023-05-16T12:50:47;95735.28;;;13.99;90.14
74270;BME280;62754;48.252;11.654;2023-05-16T12:53:17;95734.03;;;13.77;89.49
74270;BME280;62754;48.252;11.654;2023-05-16T12:55:43;95734.47;;;13.73;92.06
74270;BME280;62754;48.252;11.654;2023-05-16T12:58:12;95734.78;;;13.70;92.47
74270;BME280;62754;48.252;11.654;2023-05-16T13:00:42;95736.72;;;13.50;93.08
74270;BME280;62754;48.252;11.654;2023-05-16T13:03:11;95742.34;;;13.28;91.33
74270;BME280;62754;48.252;11.654;2023-05-16T13:05:37;95744.44;;;13.24;92.23
74270;BME280;62754;48.252;11.654;2023-05-16T13:08:03;95740.66;;;13.19;93.82
74270;BME280;62754;48.252;11.654;2023-05-16T13:10:28;95741.69;;;13.26;94.61
74270;BME280;62754;48.252;11.654;2023-05-16T13:12:54;95753.25;;;13.04;95.86
74270;BME280;62754;48.252;11.654;2023-05-16T13:15:25;95769.69;;;13.13;96.61
74270;BME280;62754;48.252;11.654;2023-05-16T13:17:51;95791.94;;;12.96;90.99
74270;BME280;62754;48.252;11.654;2023-05-16T13:20:19;95795.13;;;12.53;88.56